sensor_id;sensor_type;location;lat;lon;timestamp;temperature;humidity
563;DHT22;266;49.514;8.294;2023-02-28T00:01:26;-0.10;99.90
563;DHT22;266;49.514;8.294;2023-02-28T00:03:56;-0.10;99.90
563;DHT22;266;49.514;8.294;2023-02-28T00:06:24;-0.10;99.90
563;DHT22;266;49.514;8.294;2023-02-28T00:08:53;-0.10;99.90
563;DHT22;266;49.514;8.294;2023-02-28T00:11:21;-0.20;99.90
563;DHT22;266;49.514;8.294;2023-02-28T00:13:49;-0.20;99.90
563;DHT22;266;49.514;8.294;2023-02-28T00:16:19;-0.20;99.90
563;DHT22;266;49.514;8.294;2023-02-28T00:22:37;-0.20;99.90
563;DHT22;266;49.514;8.294;2023-02-28T00:25:07;-0.20;99.90
563;DHT22;266;49.514;8.294;2023-02-28T00:27:36;-0.20;99.90
563;DHT22;266;49.514;8.294;2023-02-28T00:30:07;-0.10;99.90
563;DHT22;266;49.514;8.294;2023-02-28T00:32:35;-0.10;99.90
563;DHT22;266;49.514;8.294;2023-02-28T00:35:05;-0.10;99.90
563;DHT22;266;49.514;8.294;2023-02-28T00:37:34;-0.10;99.90
563;DHT22;266;49.514;8.294;2023-02-28T00:40:05;-0.10;99.90
563;DHT22;266;49.514;8.294;2023-02-28T00:42:33;-0.10;99.90
563;DHT22;266;49.514;8.294;2023-02-28T00:45:02;-0.10;99.90
563;DHT22;266;49.514;8.294;2023-02-28T00:47:31;-0.10;99.90
563;DHT22;266;49.514;8.294;2023-02-28T00:50:00;-0.10;99.90
563;DHT22;266;49.514;8.294;2023-02-28T00:52:28;-0.10;99.90
563;DHT22;266;49.514;8.294;2023-02-28T00:54:56;-0.20;99.90
563;DHT22;266;49.514;8.294;2023-02-28T00:57:26;-0.20;99.90
563;DHT22;266;49.514;8.294;2023-02-28T00:59:54;-0.20;99.90
563;DHT22;266;49.514;8.294;2023-02-28T01:02:23;-0.20;99.90
563;DHT22;266;49.514;8.294;2023-02-28T01:04:51;-0.20;99.90
563;DHT22;266;49.514;8.294;2023-02-28T01:18:42;-0.40;99.90
563;DHT22;266;49.514;8.294;2023-02-28T01:21:12;-0.50;99.90
563;DHT22;266;49.514;8.294;2023-02-28T01:23:41;-0.50;99.90
563;DHT22;266;49.514;8.294;2023-02-28T01:26:11;-0.60;99.90
563;DHT22;266;49.514;8.294;2023-02-28T01:28:39;-0.60;99.90
563;DHT22;266;49.514;8.294;2023-02-28T01:31:08;-0.60;99.90
563;DHT22;266;49.514;8.294;2023-02-28T01:33:37;-0.60;99.90
563;DHT22;266;49.514;8.294;2023-02-28T01:36:11;-0.70;99.90
563;DHT22;266;49.514;8.294;2023-02-28T01:38:39;-0.70;99.90
563;DHT22;266;49.514;8.294;2023-02-28T01:41:08;-0.80;99.90
563;DHT22;266;49.514;8.294;2023-02-28T01:43:59;-0.80;99.90
563;DHT22;266;49.514;8.294;2023-02-28T01:46:30;-0.80;99.90
563;DHT22;266;49.514;8.294;2023-02-28T01:49:06;-0.90;99.90
563;DHT22;266;49.514;8.294;2023-02-28T01:51:39;-0.90;99.90
563;DHT22;266;49.514;8.294;2023-02-28T01:54:15;-0.90;99.90
563;DHT22;266;49.514;8.294;2023-02-28T01:56:46;-1.00;99.90
563;DHT22;266;49.514;8.294;2023-02-28T01:59:22;-1.00;99.90
563;DHT22;266;49.514;8.294;2023-02-28T02:01:53;-1.00;99.90
563;DHT22;266;49.514;8.294;2023-02-28T02:04:21;-1.10;99.90
563;DHT22;266;49.514;8.294;2023-02-28T02:06:52;-1.10;99.90
563;DHT22;266;49.514;8.294;2023-02-28T02:09:20;-1.20;99.90
563;DHT22;266;49.514;8.294;2023-02-28T02:11:49;-1.20;99.90
563;DHT22;266;49.514;8.294;2023-02-28T02:14:37;-1.20;99.90
563;DHT22;266;49.514;8.294;2023-02-28T02:17:16;-1.20;99.90
563;DHT22;266;49.514;8.294;2023-02-28T02:20:14;-1.20;99.90
563;DHT22;266;49.514;8.294;2023-02-28T02:25:57;-1.30;99.90
563;DHT22;266;49.514;8.294;2023-02-28T02:28:46;-1.30;99.90
563;DHT22;266;49.514;8.294;2023-02-28T02:31:37;-1.30;99.90
563;DHT22;266;49.514;8.294;2023-02-28T02:34:37;-1.30;99.90
563;DHT22;266;49.514;8.294;2023-02-28T02:37:13;-1.30;99.90
563;DHT22;266;49.514;8.294;2023-02-28T02:39:50;-1.40;99.90
563;DHT22;266;49.514;8.294;2023-02-28T02:42:23;-1.40;99.90
563;DHT22;266;49.514;8.294;2023-02-28T02:44:59;-1.40;99.90
563;DHT22;266;49.514;8.294;2023-02-28T02:47:30;-1.40;99.90
563;DHT22;266;49.514;8.294;2023-02-28T02:50:03;-1.40;99.90
563;DHT22;266;49.514;8.294;2023-02-28T02:52:37;-1.40;99.90
563;DHT22;266;49.514;8.294;2023-02-28T02:55:08;-1.40;99.90
563;DHT22;266;49.514;8.294;2023-02-28T02:57:40;-1.40;99.90
563;DHT22;266;49.514;8.294;2023-02-28T03:00:12;-1.40;99.90
563;DHT22;266;49.514;8.294;2023-02-28T03:02:42;-1.50;99.90
563;DHT22;266;49.514;8.294;2023-02-28T03:05:18;-1.50;99.90
563;DHT22;266;49.514;8.294;2023-02-28T03:07:47;-1.50;99.90
563;DHT22;266;49.514;8.294;2023-02-28T03:10:38;-1.60;99.90
563;DHT22;266;49.514;8.294;2023-02-28T03:13:40;-1.60;99.90
563;DHT22;266;49.514;8.294;2023-02-28T03:16:40;-1.60;99.90
563;DHT22;266;49.514;8.294;2023-02-28T03:19:47;-1.60;99.90
563;DHT22;266;49.514;8.294;2023-02-28T03:22:33;-1.60;99.90
563;DHT22;266;49.514;8.294;2023-02-28T03:25:09;-1.70;99.90
563;DHT22;266;49.514;8.294;2023-02-28T03:27:42;-1.70;99.90
563;DHT22;266;49.514;8.294;2023-02-28T03:30:20;-1.70;99.90
563;DHT22;266;49.514;8.294;2023-02-28T03:32:54;-1.70;99.90
563;DHT22;266;49.514;8.294;2023-02-28T03:35:24;-1.70;99.90
563;DHT22;266;49.514;8.294;2023-02-28T03:38:00;-1.60;99.90
563;DHT22;266;49.514;8.294;2023-02-28T03:40:32;-1.60;99.90
563;DHT22;266;49.514;8.294;2023-02-28T03:43:04;-1.70;99.90
563;DHT22;266;49.514;8.294;2023-02-28T03:45:39;-1.60;99.90
563;DHT22;266;49.514;8.294;2023-02-28T03:48:10;-1.60;99.90
563;DHT22;266;49.514;8.294;2023-02-28T03:50:42;-1.60;99.90
563;DHT22;266;49.514;8.294;2023-02-28T03:53:15;-1.60;99.90
563;DHT22;266;49.514;8.294;2023-02-28T03:55:47;-1.60;99.90
563;DHT22;266;49.514;8.294;2023-02-28T03:58:20;-1.60;99.90
563;DHT22;266;49.514;8.294;2023-02-28T04:00:52;-1.60;99.90
563;DHT22;266;49.514;8.294;2023-02-28T04:03:23;-1.60;99.90
563;DHT22;266;49.514;8.294;2023-02-28T04:05:52;-1.60;99.90
563;DHT22;266;49.514;8.294;2023-02-28T04:08:22;-1.60;99.90
563;DHT22;266;49.514;8.294;2023-02-28T04:10:55;-1.60;99.90
563;DHT22;266;49.514;8.294;2023-02-28T04:13:24;-1.60;99.90
563;DHT22;266;49.514;8.294;2023-02-28T04:15:52;-1.70;99.90
563;DHT22;266;49.514;8.294;2023-02-28T04:18:20;-1.70;99.90
563;DHT22;266;49.514;8.294;2023-02-28T04:20:48;-1.70;99.90
563;DHT22;266;49.514;8.294;2023-02-28T04:23:16;-1.70;99.90
563;DHT22;266;49.514;8.294;2023-02-28T04:25:46;-1.80;99.90
563;DHT22;266;49.514;8.294;2023-02-28T04:28:14;-1.80;99.90
563;DHT22;266;49.514;8.294;2023-02-28T04:30:42;-1.80;99.90
563;DHT22;266;49.514;8.294;2023-02-28T04:33:10;-1.90;99.90
563;DHT22;266;49.514;8.294;2023-02-28T04:35:38;-1.80;99.90
563;DHT22;266;49.514;8.294;2023-02-28T04:38:06;-1.80;99.90
563;DHT22;266;49.514;8.294;2023-02-28T04:40:35;-1.80;99.90
563;DHT22;266;49.514;8.294;2023-02-28T04:43:04;-1.80;99.90
563;DHT22;266;49.514;8.294;2023-02-28T04:45:32;-1.80;99.90
563;DHT22;266;49.514;8.294;2023-02-28T04:48:00;-1.80;99.90
563;DHT22;266;49.514;8.294;2023-02-28T04:50:29;-1.80;99.90
563;DHT22;266;49.514;8.294;2023-02-28T04:52:57;-1.90;99.90
563;DHT22;266;49.514;8.294;2023-02-28T04:55:26;-1.80;99.90
563;DHT22;266;49.514;8.294;2023-02-28T04:57:54;-1.80;99.90
563;DHT22;266;49.514;8.294;2023-02-28T05:00:23;-1.90;99.90
563;DHT22;266;49.514;8.294;2023-02-28T05:02:52;-1.90;99.90
563;DHT22;266;49.514;8.294;2023-02-28T05:05:20;-1.90;99.90
563;DHT22;266;49.514;8.294;2023-02-28T05:07:48;-1.90;99.90
563;DHT22;266;49.514;8.294;2023-02-28T05:10:16;-2.00;99.90
563;DHT22;266;49.514;8.294;2023-02-28T05:12:44;-2.00;99.90
563;DHT22;266;49.514;8.294;2023-02-28T05:15:13;-2.00;99.90
563;DHT22;266;49.514;8.294;2023-02-28T05:17:43;-1.90;99.90
563;DHT22;266;49.514;8.294;2023-02-28T05:20:11;-1.90;99.90
563;DHT22;266;49.514;8.294;2023-02-28T05:22:41;-1.90;99.90
563;DHT22;266;49.514;8.294;2023-02-28T05:25:11;-1.90;99.90
563;DHT22;266;49.514;8.294;2023-02-28T05:27:40;-1.90;99.90
563;DHT22;266;49.514;8.294;2023-02-28T05:30:09;-1.90;99.90
563;DHT22;266;49.514;8.294;2023-02-28T05:32:38;-1.90;99.90
563;DHT22;266;49.514;8.294;2023-02-28T05:35:11;-1.90;99.90
563;DHT22;266;49.514;8.294;2023-02-28T05:37:39;-1.80;99.90
563;DHT22;266;49.514;8.294;2023-02-28T05:40:08;-1.80;99.90
563;DHT22;266;49.514;8.294;2023-02-28T05:42:38;-1.70;99.90
563;DHT22;266;49.514;8.294;2023-02-28T05:45:07;-1.70;99.90
563;DHT22;266;49.514;8.294;2023-02-28T05:47:35;-1.70;99.90
563;DHT22;266;49.514;8.294;2023-02-28T05:50:04;-1.60;99.90
563;DHT22;266;49.514;8.294;2023-02-28T05:52:34;-1.60;99.90
563;DHT22;266;49.514;8.294;2023-02-28T05:55:02;-1.60;99.90
563;DHT22;266;49.514;8.294;2023-02-28T05:57:30;-1.60;99.90
563;DHT22;266;49.514;8.294;2023-02-28T05:59:58;-1.60;99.90
563;DHT22;266;49.514;8.294;2023-02-28T06:02:26;-1.60;99.90
563;DHT22;266;49.514;8.294;2023-02-28T06:04:53;-1.50;99.90
563;DHT22;266;49.514;8.294;2023-02-28T06:07:21;-1.50;99.90
563;DHT22;266;49.514;8.294;2023-02-28T06:09:51;-1.50;99.90
563;DHT22;266;49.514;8.294;2023-02-28T06:12:19;-1.50;99.90
563;DHT22;266;49.514;8.294;2023-02-28T06:14:47;-1.40;99.90
563;DHT22;266;49.514;8.294;2023-02-28T06:17:15;-1.40;99.90
563;DHT22;266;49.514;8.294;2023-02-28T06:19:43;-1.40;99.90
563;DHT22;266;49.514;8.294;2023-02-28T06:22:11;-1.40;99.90
563;DHT22;266;49.514;8.294;2023-02-28T06:24:38;-1.40;99.90
563;DHT22;266;49.514;8.294;2023-02-28T06:27:08;-1.40;99.90
563;DHT22;266;49.514;8.294;2023-02-28T06:29:36;-1.40;99.90
563;DHT22;266;49.514;8.294;2023-02-28T06:32:06;-1.30;99.90
563;DHT22;266;49.514;8.294;2023-02-28T06:34:34;-1.30;99.90
563;DHT22;266;49.514;8.294;2023-02-28T06:37:03;-1.30;99.90
563;DHT22;266;49.514;8.294;2023-02-28T06:39:32;-1.30;99.90
563;DHT22;266;49.514;8.294;2023-02-28T06:42:00;-1.20;99.90
563;DHT22;266;49.514;8.294;2023-02-28T06:44:30;-1.20;99.90
563;DHT22;266;49.514;8.294;2023-02-28T06:47:02;-1.20;99.90
563;DHT22;266;49.514;8.294;2023-02-28T06:49:31;-1.20;99.90
563;DHT22;266;49.514;8.294;2023-02-28T06:51:59;-1.10;99.90
563;DHT22;266;49.514;8.294;2023-02-28T06:54:27;-1.10;99.90
563;DHT22;266;49.514;8.294;2023-02-28T06:56:55;-1.10;99.90
563;DHT22;266;49.514;8.294;2023-02-28T06:59:23;-1.10;99.90
563;DHT22;266;49.514;8.294;2023-02-28T07:01:52;-1.00;99.90
563;DHT22;266;49.514;8.294;2023-02-28T07:04:21;-1.00;99.90
563;DHT22;266;49.514;8.294;2023-02-28T07:06:49;-0.90;99.90
563;DHT22;266;49.514;8.294;2023-02-28T07:09:17;-0.90;99.90
563;DHT22;266;49.514;8.294;2023-02-28T07:11:45;-0.90;99.90
563;DHT22;266;49.514;8.294;2023-02-28T07:14:13;-0.90;99.90
563;DHT22;266;49.514;8.294;2023-02-28T07:16:41;-0.90;99.90
563;DHT22;266;49.514;8.294;2023-02-28T07:19:12;-0.90;99.90
563;DHT22;266;49.514;8.294;2023-02-28T07:21:40;-0.80;99.90
563;DHT22;266;49.514;8.294;2023-02-28T07:24:08;-0.80;99.90
563;DHT22;266;49.514;8.294;2023-02-28T07:26:37;-0.80;99.90
563;DHT22;266;49.514;8.294;2023-02-28T07:29:04;-0.70;99.90
563;DHT22;266;49.514;8.294;2023-02-28T07:31:32;-0.70;99.90
563;DHT22;266;49.514;8.294;2023-02-28T07:34:01;-0.60;99.90
563;DHT22;266;49.514;8.294;2023-02-28T07:36:30;-0.50;99.90
563;DHT22;266;49.514;8.294;2023-02-28T07:38:58;-0.50;99.90
563;DHT22;266;49.514;8.294;2023-02-28T07:41:26;-0.40;99.90
563;DHT22;266;49.514;8.294;2023-02-28T07:43:57;-0.40;99.90
563;DHT22;266;49.514;8.294;2023-02-28T07:46:26;-0.30;99.90
563;DHT22;266;49.514;8.294;2023-02-28T07:48:56;-0.20;99.90
563;DHT22;266;49.514;8.294;2023-02-28T07:51:26;-0.10;99.90
563;DHT22;266;49.514;8.294;2023-02-28T07:53:56;0.00;99.90
563;DHT22;266;49.514;8.294;2023-02-28T07:56:24;0.10;99.90
563;DHT22;266;49.514;8.294;2023-02-28T07:58:53;0.20;99.90
563;DHT22;266;49.514;8.294;2023-02-28T08:01:20;0.30;99.90
563;DHT22;266;49.514;8.294;2023-02-28T08:03:49;0.40;99.90
563;DHT22;266;49.514;8.294;2023-02-28T08:06:18;0.50;99.90
563;DHT22;266;49.514;8.294;2023-02-28T08:08:47;0.60;99.90
563;DHT22;266;49.514;8.294;2023-02-28T08:11:17;0.80;99.90
563;DHT22;266;49.514;8.294;2023-02-28T08:13:45;1.00;99.90
563;DHT22;266;49.514;8.294;2023-02-28T08:16:14;1.20;99.90
563;DHT22;266;49.514;8.294;2023-02-28T08:18:44;1.40;99.90
563;DHT22;266;49.514;8.294;2023-02-28T08:21:12;1.50;99.90
563;DHT22;266;49.514;8.294;2023-02-28T08:23:40;1.70;99.90
563;DHT22;266;49.514;8.294;2023-02-28T08:26:08;1.80;99.90
563;DHT22;266;49.514;8.294;2023-02-28T08:28:38;2.10;99.90
563;DHT22;266;49.514;8.294;2023-02-28T08:31:11;2.30;99.90
563;DHT22;266;49.514;8.294;2023-02-28T08:33:40;2.50;99.90
563;DHT22;266;49.514;8.294;2023-02-28T08:36:09;2.80;99.90
563;DHT22;266;49.514;8.294;2023-02-28T08:38:37;3.10;99.90
563;DHT22;266;49.514;8.294;2023-02-28T08:41:07;3.10;99.90
563;DHT22;266;49.514;8.294;2023-02-28T08:43:35;3.10;99.90
563;DHT22;266;49.514;8.294;2023-02-28T08:46:06;3.30;99.90
563;DHT22;266;49.514;8.294;2023-02-28T08:48:35;3.50;99.90
563;DHT22;266;49.514;8.294;2023-02-28T08:51:06;3.80;99.90
563;DHT22;266;49.514;8.294;2023-02-28T08:53:36;4.40;99.90
563;DHT22;266;49.514;8.294;2023-02-28T08:56:06;4.90;99.90
563;DHT22;266;49.514;8.294;2023-02-28T08:58:35;5.00;99.90
563;DHT22;266;49.514;8.294;2023-02-28T09:01:10;5.20;99.90
563;DHT22;266;49.514;8.294;2023-02-28T09:03:39;5.20;99.90
563;DHT22;266;49.514;8.294;2023-02-28T09:06:07;5.20;99.90
563;DHT22;266;49.514;8.294;2023-02-28T09:08:36;5.30;99.90
563;DHT22;266;49.514;8.294;2023-02-28T09:11:04;5.30;99.90
563;DHT22;266;49.514;8.294;2023-02-28T09:13:33;5.60;99.90
563;DHT22;266;49.514;8.294;2023-02-28T09:16:03;5.80;99.90
563;DHT22;266;49.514;8.294;2023-02-28T09:18:34;6.20;99.90
563;DHT22;266;49.514;8.294;2023-02-28T09:21:03;6.30;99.90
563;DHT22;266;49.514;8.294;2023-02-28T09:23:31;6.30;99.90
563;DHT22;266;49.514;8.294;2023-02-28T09:25:59;6.30;99.90
563;DHT22;266;49.514;8.294;2023-02-28T09:28:27;6.30;99.90
563;DHT22;266;49.514;8.294;2023-02-28T09:30:55;6.50;99.90
563;DHT22;266;49.514;8.294;2023-02-28T09:33:25;6.70;99.90
563;DHT22;266;49.514;8.294;2023-02-28T09:36:00;6.80;99.90
563;DHT22;266;49.514;8.294;2023-02-28T09:38:28;6.90;99.90
563;DHT22;266;49.514;8.294;2023-02-28T09:40:59;6.80;99.90
563;DHT22;266;49.514;8.294;2023-02-28T09:43:30;7.00;99.90
563;DHT22;266;49.514;8.294;2023-02-28T09:46:05;7.10;99.90
563;DHT22;266;49.514;8.294;2023-02-28T09:48:38;7.00;99.90
563;DHT22;266;49.514;8.294;2023-02-28T09:51:21;6.70;99.90
563;DHT22;266;49.514;8.294;2023-02-28T09:53:54;6.70;99.90
563;DHT22;266;49.514;8.294;2023-02-28T09:56:31;6.90;99.90
563;DHT22;266;49.514;8.294;2023-02-28T09:59:01;7.10;99.90
563;DHT22;266;49.514;8.294;2023-02-28T10:01:38;7.10;99.90
563;DHT22;266;49.514;8.294;2023-02-28T10:04:12;7.20;99.90
563;DHT22;266;49.514;8.294;2023-02-28T10:06:48;6.80;99.90
563;DHT22;266;49.514;8.294;2023-02-28T10:09:19;6.30;99.90
563;DHT22;266;49.514;8.294;2023-02-28T10:11:52;6.10;99.90
563;DHT22;266;49.514;8.294;2023-02-28T10:14:26;6.00;99.90
563;DHT22;266;49.514;8.294;2023-02-28T10:16:58;6.10;99.90
563;DHT22;266;49.514;8.294;2023-02-28T10:19:31;6.20;99.90
563;DHT22;266;49.514;8.294;2023-02-28T10:22:08;6.30;99.90
563;DHT22;266;49.514;8.294;2023-02-28T10:24:40;6.30;99.90
563;DHT22;266;49.514;8.294;2023-02-28T10:27:14;6.70;99.90
563;DHT22;266;49.514;8.294;2023-02-28T10:29:44;6.90;99.90
563;DHT22;266;49.514;8.294;2023-02-28T10:32:15;7.10;99.90
563;DHT22;266;49.514;8.294;2023-02-28T10:34:49;6.90;99.90
563;DHT22;266;49.514;8.294;2023-02-28T10:37:20;6.80;99.90
563;DHT22;266;49.514;8.294;2023-02-28T10:39:48;6.90;99.90
563;DHT22;266;49.514;8.294;2023-02-28T10:42:22;6.80;99.90
563;DHT22;266;49.514;8.294;2023-02-28T10:45:11;6.40;99.90
563;DHT22;266;49.514;8.294;2023-02-28T10:47:49;6.50;99.90
563;DHT22;266;49.514;8.294;2023-02-28T10:50:29;6.50;99.90
563;DHT22;266;49.514;8.294;2023-02-28T10:53:15;6.50;99.90
563;DHT22;266;49.514;8.294;2023-02-28T10:55:43;6.00;99.90
563;DHT22;266;49.514;8.294;2023-02-28T10:58:21;5.90;99.90
563;DHT22;266;49.514;8.294;2023-02-28T11:00:51;5.90;99.90
563;DHT22;266;49.514;8.294;2023-02-28T11:03:30;6.00;99.90
563;DHT22;266;49.514;8.294;2023-02-28T11:06:05;6.00;99.90
563;DHT22;266;49.514;8.294;2023-02-28T11:08:44;6.20;99.90
563;DHT22;266;49.514;8.294;2023-02-28T11:11:13;6.10;99.90
563;DHT22;266;49.514;8.294;2023-02-28T11:13:44;6.30;99.90
563;DHT22;266;49.514;8.294;2023-02-28T11:16:14;6.50;99.90
563;DHT22;266;49.514;8.294;2023-02-28T11:18:48;6.80;99.90
563;DHT22;266;49.514;8.294;2023-02-28T11:21:21;6.80;99.90
563;DHT22;266;49.514;8.294;2023-02-28T11:23:56;6.50;99.90
563;DHT22;266;49.514;8.294;2023-02-28T11:26:39;6.40;99.90
563;DHT22;266;49.514;8.294;2023-02-28T11:29:19;6.40;99.90
563;DHT22;266;49.514;8.294;2023-02-28T11:32:13;6.80;99.90
563;DHT22;266;49.514;8.294;2023-02-28T11:34:45;6.90;99.90
563;DHT22;266;49.514;8.294;2023-02-28T11:37:16;6.70;99.90
563;DHT22;266;49.514;8.294;2023-02-28T11:39:47;6.70;99.90
563;DHT22;266;49.514;8.294;2023-02-28T11:42:35;6.90;99.90
563;DHT22;266;49.514;8.294;2023-02-28T11:45:19;7.00;99.90
563;DHT22;266;49.514;8.294;2023-02-28T11:47:58;6.90;99.90
563;DHT22;266;49.514;8.294;2023-02-28T11:50:46;7.20;99.90
563;DHT22;266;49.514;8.294;2023-02-28T11:53:22;7.30;99.90
563;DHT22;266;49.514;8.294;2023-02-28T11:56:02;7.20;99.90
563;DHT22;266;49.514;8.294;2023-02-28T11:58:42;7.20;99.90
563;DHT22;266;49.514;8.294;2023-02-28T12:01:32;7.20;99.90
563;DHT22;266;49.514;8.294;2023-02-28T12:04:21;7.30;99.90
563;DHT22;266;49.514;8.294;2023-02-28T12:06:57;7.60;99.90
563;DHT22;266;49.514;8.294;2023-02-28T12:09:44;7.70;99.90
563;DHT22;266;49.514;8.294;2023-02-28T12:12:23;8.10;99.90
563;DHT22;266;49.514;8.294;2023-02-28T12:15:13;8.40;99.90
563;DHT22;266;49.514;8.294;2023-02-28T12:18:00;8.50;99.90
563;DHT22;266;49.514;8.294;2023-02-28T12:20:38;8.40;99.90
563;DHT22;266;49.514;8.294;2023-02-28T12:23:25;8.30;99.90
563;DHT22;266;49.514;8.294;2023-02-28T12:26:07;7.80;99.90
563;DHT22;266;49.514;8.294;2023-02-28T12:28:47;7.40;99.90
563;DHT22;266;49.514;8.294;2023-02-28T12:31:20;7.10;99.90
563;DHT22;266;49.514;8.294;2023-02-28T12:33:52;6.90;99.90
563;DHT22;266;49.514;8.294;2023-02-28T12:36:21;7.00;99.90
563;DHT22;266;49.514;8.294;2023-02-28T12:38:54;7.00;99.90
563;DHT22;266;49.514;8.294;2023-02-28T12:41:27;7.10;99.90
563;DHT22;266;49.514;8.294;2023-02-28T12:44:02;7.30;99.90
563;DHT22;266;49.514;8.294;2023-02-28T12:46:35;7.20;99.90
563;DHT22;266;49.514;8.294;2023-02-28T12:49:08;7.20;99.90
563;DHT22;266;49.514;8.294;2023-02-28T12:51:37;7.50;99.90
563;DHT22;266;49.514;8.294;2023-02-28T12:54:12;7.80;99.90
563;DHT22;266;49.514;8.294;2023-02-28T12:56:49;7.70;99.90
563;DHT22;266;49.514;8.294;2023-02-28T12:59:26;7.70;99.90
563;DHT22;266;49.514;8.294;2023-02-28T13:02:15;7.70;99.90
563;DHT22;266;49.514;8.294;2023-02-28T13:05:19;7.50;99.90
563;DHT22;266;49.514;8.294;2023-02-28T13:08:17;7.70;99.90
563;DHT22;266;49.514;8.294;2023-02-28T13:10:48;7.90;99.90
563;DHT22;266;49.514;8.294;2023-02-28T13:13:23;8.20;99.90
563;DHT22;266;49.514;8.294;2023-02-28T13:16:02;8.20;99.90
563;DHT22;266;49.514;8.294;2023-02-28T13:18:34;8.00;99.90
563;DHT22;266;49.514;8.294;2023-02-28T13:21:04;8.10;99.90
563;DHT22;266;49.514;8.294;2023-02-28T13:23:58;8.30;99.90
563;DHT22;266;49.514;8.294;2023-02-28T13:29:58;7.90;99.90
563;DHT22;266;49.514;8.294;2023-02-28T13:32:37;8.20;99.90
563;DHT22;266;49.514;8.294;2023-02-28T13:35:44;8.40;99.90
563;DHT22;266;49.514;8.294;2023-02-28T13:38:35;8.40;99.90
563;DHT22;266;49.514;8.294;2023-02-28T13:44:12;8.60;99.90
563;DHT22;266;49.514;8.294;2023-02-28T13:49:47;8.40;99.90
563;DHT22;266;49.514;8.294;2023-02-28T13:52:18;8.00;99.90
563;DHT22;266;49.514;8.294;2023-02-28T13:55:17;8.10;99.90
563;DHT22;266;49.514;8.294;2023-02-28T13:57:58;8.30;99.90
563;DHT22;266;49.514;8.294;2023-02-28T14:00:36;8.20;99.90
563;DHT22;266;49.514;8.294;2023-02-28T14:03:26;8.20;99.90
563;DHT22;266;49.514;8.294;2023-02-28T14:06:21;8.00;99.90
563;DHT22;266;49.514;8.294;2023-02-28T14:08:56;8.00;99.90
563;DHT22;266;49.514;8.294;2023-02-28T14:11:32;8.00;99.90
563;DHT22;266;49.514;8.294;2023-02-28T14:14:01;7.90;99.90
563;DHT22;266;49.514;8.294;2023-02-28T14:16:37;7.90;99.90
563;DHT22;266;49.514;8.294;2023-02-28T14:19:12;7.80;99.90
563;DHT22;266;49.514;8.294;2023-02-28T14:21:53;7.80;99.90
563;DHT22;266;49.514;8.294;2023-02-28T14:24:59;7.80;99.90
563;DHT22;266;49.514;8.294;2023-02-28T14:27:39;7.40;99.90
563;DHT22;266;49.514;8.294;2023-02-28T14:33:19;6.80;99.90
563;DHT22;266;49.514;8.294;2023-02-28T14:36:03;7.00;99.90
563;DHT22;266;49.514;8.294;2023-02-28T14:38:37;7.20;99.90
563;DHT22;266;49.514;8.294;2023-02-28T14:41:16;7.30;99.90
563;DHT22;266;49.514;8.294;2023-02-28T14:43:51;7.50;99.90
563;DHT22;266;49.514;8.294;2023-02-28T14:46:21;7.40;99.90
563;DHT22;266;49.514;8.294;2023-02-28T14:48:50;7.30;99.90
563;DHT22;266;49.514;8.294;2023-02-28T14:51:20;7.20;99.90
563;DHT22;266;49.514;8.294;2023-02-28T14:53:55;7.30;99.90
563;DHT22;266;49.514;8.294;2023-02-28T14:56:26;7.10;99.90
563;DHT22;266;49.514;8.294;2023-02-28T14:58:57;6.90;99.90
563;DHT22;266;49.514;8.294;2023-02-28T15:01:26;6.90;99.90
563;DHT22;266;49.514;8.294;2023-02-28T15:03:58;6.70;99.90
563;DHT22;266;49.514;8.294;2023-02-28T15:06:28;6.60;99.90
563;DHT22;266;49.514;8.294;2023-02-28T15:09:14;6.60;99.90
563;DHT22;266;49.514;8.294;2023-02-28T15:11:47;6.50;99.90
563;DHT22;266;49.514;8.294;2023-02-28T15:14:19;6.50;99.90
563;DHT22;266;49.514;8.294;2023-02-28T15:16:52;6.40;99.90
563;DHT22;266;49.514;8.294;2023-02-28T15:19:26;6.40;99.90
563;DHT22;266;49.514;8.294;2023-02-28T15:21:59;6.40;99.90
563;DHT22;266;49.514;8.294;2023-02-28T15:24:38;6.30;99.90
563;DHT22;266;49.514;8.294;2023-02-28T15:27:10;6.30;99.90
563;DHT22;266;49.514;8.294;2023-02-28T15:29:44;6.30;99.90
563;DHT22;266;49.514;8.294;2023-02-28T15:32:24;6.40;99.90
563;DHT22;266;49.514;8.294;2023-02-28T15:34:53;6.20;99.90
563;DHT22;266;49.514;8.294;2023-02-28T15:37:40;6.20;99.90
563;DHT22;266;49.514;8.294;2023-02-28T15:40:16;6.10;99.90
563;DHT22;266;49.514;8.294;2023-02-28T15:42:59;6.00;99.90
563;DHT22;266;49.514;8.294;2023-02-28T15:45:29;6.00;99.90
563;DHT22;266;49.514;8.294;2023-02-28T15:48:01;5.80;99.90
563;DHT22;266;49.514;8.294;2023-02-28T15:50:39;5.80;99.90
563;DHT22;266;49.514;8.294;2023-02-28T15:53:13;5.70;99.90
563;DHT22;266;49.514;8.294;2023-02-28T15:55:42;5.60;99.90
563;DHT22;266;49.514;8.294;2023-02-28T15:58:12;5.60;99.90
563;DHT22;266;49.514;8.294;2023-02-28T16:00:43;5.50;99.90
563;DHT22;266;49.514;8.294;2023-02-28T16:03:26;5.40;99.90
563;DHT22;266;49.514;8.294;2023-02-28T16:06:24;5.30;99.90
563;DHT22;266;49.514;8.294;2023-02-28T16:08:54;5.30;99.90
563;DHT22;266;49.514;8.294;2023-02-28T16:11:23;5.30;99.90
563;DHT22;266;49.514;8.294;2023-02-28T16:13:52;5.20;99.90
563;DHT22;266;49.514;8.294;2023-02-28T16:16:22;5.10;99.90
563;DHT22;266;49.514;8.294;2023-02-28T16:18:53;5.10;99.90
563;DHT22;266;49.514;8.294;2023-02-28T16:21:25;5.00;99.90
563;DHT22;266;49.514;8.294;2023-02-28T16:23:54;5.00;99.90
563;DHT22;266;49.514;8.294;2023-02-28T16:26:24;5.00;99.90
563;DHT22;266;49.514;8.294;2023-02-28T16:28:54;5.00;99.90
563;DHT22;266;49.514;8.294;2023-02-28T16:31:22;4.90;99.90
563;DHT22;266;49.514;8.294;2023-02-28T16:33:50;4.90;99.90
563;DHT22;266;49.514;8.294;2023-02-28T16:36:23;4.90;99.90
563;DHT22;266;49.514;8.294;2023-02-28T16:38:51;4.80;99.90
563;DHT22;266;49.514;8.294;2023-02-28T16:41:21;4.80;99.90
563;DHT22;266;49.514;8.294;2023-02-28T16:43:53;4.70;99.90
563;DHT22;266;49.514;8.294;2023-02-28T16:46:27;4.60;99.90
563;DHT22;266;49.514;8.294;2023-02-28T16:48:58;4.60;99.90
563;DHT22;266;49.514;8.294;2023-02-28T16:51:27;4.60;99.90
563;DHT22;266;49.514;8.294;2023-02-28T16:53:56;4.50;99.90
563;DHT22;266;49.514;8.294;2023-02-28T16:56:25;4.50;99.90
563;DHT22;266;49.514;8.294;2023-02-28T16:58:57;4.40;99.90
563;DHT22;266;49.514;8.294;2023-02-28T17:01:27;4.30;99.90
563;DHT22;266;49.514;8.294;2023-02-28T17:03:56;4.30;99.90
563;DHT22;266;49.514;8.294;2023-02-28T17:06:27;4.20;99.90
563;DHT22;266;49.514;8.294;2023-02-28T17:08:56;4.20;99.90
563;DHT22;266;49.514;8.294;2023-02-28T17:11:25;4.10;99.90
563;DHT22;266;49.514;8.294;2023-02-28T17:13:55;4.00;99.90
563;DHT22;266;49.514;8.294;2023-02-28T17:16:27;4.00;99.90
563;DHT22;266;49.514;8.294;2023-02-28T17:18:58;4.00;99.90
563;DHT22;266;49.514;8.294;2023-02-28T17:21:27;3.90;99.90
563;DHT22;266;49.514;8.294;2023-02-28T17:23:55;3.80;99.90
563;DHT22;266;49.514;8.294;2023-02-28T17:26:24;3.80;99.90
563;DHT22;266;49.514;8.294;2023-02-28T17:28:52;3.70;99.90
563;DHT22;266;49.514;8.294;2023-02-28T17:31:24;3.70;99.90
563;DHT22;266;49.514;8.294;2023-02-28T17:33:53;3.60;99.90
563;DHT22;266;49.514;8.294;2023-02-28T17:36:22;3.60;99.90
563;DHT22;266;49.514;8.294;2023-02-28T17:38:52;3.50;99.90
563;DHT22;266;49.514;8.294;2023-02-28T17:41:21;3.50;99.90
563;DHT22;266;49.514;8.294;2023-02-28T17:43:49;3.40;99.90
563;DHT22;266;49.514;8.294;2023-02-28T17:46:20;3.40;99.90
563;DHT22;266;49.514;8.294;2023-02-28T17:48:51;3.30;99.90
563;DHT22;266;49.514;8.294;2023-02-28T17:51:22;3.30;99.90
563;DHT22;266;49.514;8.294;2023-02-28T17:53:51;3.30;99.90